Archival Weather

Republic

Farmingdale, New York (KFRG)

Report from: Friday, February 2, 2024 10:17 AM EST
Current time: Monday, June 17, 2024 3:01 AM EDT

Current weather – Weather history – Daily summaries
Weather forecast

Present weatherMist
Temperature5.6°C (42.1°F)
Wind chill4.6°C (40.2°F)
Dew point4.4°C (39.9°F)
Winds 3 kts (1.5 m/s, 3.5 mph) Northeast (40°)
Visibility2 mi. (3.2 km)
Clouds Ceiling: Overcast 700 ft. (213 m)
Altimeter29.86 in.Hg (1011 mB)
Relative humidity92 %
Density altitude-942 ft. (-287 m)
Remarks Automated weather observing station without precipitation discriminator
Flight conditions Instrument Meteorological Conditions
Raw dataKFRG 021517Z 04003KT 2SM BR OVC007 06/04 A2986 RMK AO1 T00560044
An error has occurred. This application may no longer respond until reloaded. Reload 🗙